Time;durP1;ratioP1;P1;durP2;ratioP2;P2;SDS_P1;SDS_P2;PMS_P1;PMS_P2;Temp;Humidity;BMP_temperature;BMP_pressure;BME280_temperature;BME280_humidity;BME280_pressure;Samples;Min_cycle;Max_cycle;Signal;HPM_P1;HPM_P2
2022/07/29 00:00:44;;;;;;;;;7.75;7.75;;;;;22.41;34.23;101210.47;6278559;22;45165;-82
2022/07/29 00:03:11;;;;;;;;;5.00;5.00;;;;;22.40;34.43;101206.03;6250660;22;45303;-81
2022/07/29 00:05:39;;;;;;;;;4.75;4.75;;;;;22.19;34.21;101176.56;6250807;22;45477;-81
2022/07/29 00:08:04;;;;;;;;;5.00;5.00;;;;;22.31;34.41;101198.41;6276115;22;48118;-82
2022/07/29 00:10:30;;;;;;;;;5.00;5.00;;;;;22.23;34.21;101188.03;6250405;22;45292;-81
2022/07/29 00:12:55;;;;;;;;;5.00;5.00;;;;;22.27;34.12;101195.00;6278537;22;45820;-82
2022/07/29 00:15:20;;;;;;;;;6.00;5.25;;;;;22.18;34.42;101181.97;6250899;22;45477;-82
2022/07/29 00:17:47;;;;;;;;;5.00;5.00;;;;;22.13;34.34;101173.25;6278327;22;45255;-82
2022/07/29 00:20:12;;;;;;;;;5.25;5.25;;;;;22.13;34.67;101182.19;6278550;22;45477;-81
2022/07/29 00:22:39;;;;;;;;;5.75;5.75;;;;;22.06;34.98;101172.66;6278026;22;46544;-82
2022/07/29 00:25:05;;;;;;;;;5.25;5.25;;;;;22.20;34.65;101199.75;6249849;22;45391;-82
2022/07/29 00:27:31;;;;;;;;;6.75;5.25;;;;;22.03;34.95;101170.13;6277866;22;46151;-81
2022/07/29 00:29:56;;;;;;;;;6.00;6.00;;;;;22.03;35.00;101172.81;6280449;22;45166;-82
2022/07/29 00:32:21;;;;;;;;;7.50;7.00;;;;;21.93;35.05;101163.44;6281978;22;45089;-81
2022/07/29 00:37:31;;;;;;;;;7.25;7.25;;;;;21.99;35.33;101180.09;6281375;22;45172;-81
2022/07/29 00:39:56;;;;;;;;;8.00;8.00;;;;;22.01;35.55;101180.91;6253573;22;46033;-82
2022/07/29 00:42:22;;;;;;;;;6.25;6.25;;;;;21.84;35.65;101151.31;6253566;22;45191;-82
2022/07/29 00:44:47;;;;;;;;;7.75;7.75;;;;;22.03;36.06;101189.75;6252767;22;45370;-82
2022/07/29 00:47:13;;;;;;;;;11.00;10.25;;;;;21.83;36.65;101162.09;6281452;22;46050;-81
2022/07/29 00:49:44;;;;;;;;;7.00;7.00;;;;;21.86;36.65;101170.00;6281886;22;45165;-82
2022/07/29 00:52:15;;;;;;;;;7.75;7.50;;;;;21.89;37.14;101178.78;6253570;22;45230;-82
2022/07/29 00:54:41;;;;;;;;;7.50;7.50;;;;;21.76;37.35;101164.19;6253640;22;45483;-82
2022/07/29 00:57:07;;;;;;;;;10.25;7.50;;;;;21.64;37.26;101146.81;6281156;22;46044;-81
2022/07/29 00:59:33;;;;;;;;;8.00;7.00;;;;;21.81;37.46;101180.91;6281265;22;45345;-81
2022/07/29 01:01:59;;;;;;;;;11.00;11.00;;;;;21.59;37.57;101164.88;6281705;22;45366;-81
2022/07/29 01:04:24;;;;;;;;;9.75;9.75;;;;;21.47;37.85;101144.00;6281268;22;45233;-82
2022/07/29 01:06:51;;;;;;;;;10.25;8.00;;;;;21.61;37.96;101171.06;6253109;22;46913;-82
2022/07/29 01:09:18;;;;;;;;;13.75;10.75;;;;;21.42;38.22;101152.22;6281628;22;45205;-81
2022/07/29 01:11:47;;;;;;;;;8.00;8.00;;;;;21.49;38.25;101158.19;6253515;22;45377;-82
2022/07/29 01:14:14;;;;;;;;;10.50;9.00;;;;;21.46;38.41;101172.56;6252957;22;45872;-82
2022/07/29 01:16:51;;;;;;;;;9.75;9.75;;;;;21.53;38.39;101179.41;6278824;22;46988;-82
2022/07/29 01:19:47;;;;;;;;;11.75;7.75;;;;;21.33;38.92;101161.50;6253064;22;45298;-81
2022/07/29 01:22:25;;;;;;;;;9.25;9.25;;;;;21.24;38.82;101158.31;6253096;22;45225;-81
2022/07/29 01:25:02;;;;;;;;;6.00;6.00;;;;;21.41;38.96;101195.13;6253331;22;45351;-81
2022/07/29 01:27:49;;;;;;;;;12.50;8.75;;;;;21.35;39.25;101188.19;6252810;22;47579;-81
2022/07/29 01:30:15;;;;;;;;;8.00;7.00;;;;;21.14;39.31;101161.38;6253313;22;45272;-81
2022/07/29 01:32:42;;;;;;;;;8.00;7.50;;;;;21.00;39.21;101161.06;6253322;22;45242;-81
2022/07/29 01:35:18;;;;;;;;;9.50;8.00;;;;;21.03;39.94;101179.66;6279233;22;45666;-82
2022/07/29 01:37:57;;;;;;;;;8.75;8.00;;;;;21.08;39.92;101195.56;6278233;22;48155;-82
2022/07/29 01:40:29;;;;;;;;;10.00;8.50;;;;;20.94;39.99;101174.69;6252123;22;45308;-81
2022/07/29 01:43:03;;;;;;;;;8.25;7.25;;;;;20.94;40.50;101188.09;6251251;22;45459;-82
2022/07/29 01:45:31;;;;;;;;;9.75;9.75;;;;;20.95;40.16;101189.81;6277029;22;45229;-81
2022/07/29 01:48:02;;;;;;;;;6.25;4.00;;;;;20.88;40.27;101182.97;6250668;22;48045;-81
2022/07/29 01:50:34;;;;;;;;;10.75;10.75;;;;;20.87;40.43;101194.59;6251069;22;45196;-81
2022/07/29 01:53:04;;;;;;;;;7.75;7.25;;;;;20.74;40.78;101182.63;6279123;22;45248;-81
2022/07/29 01:55:33;;;;;;;;;7.75;6.25;;;;;20.58;40.88;101160.94;6251251;22;45475;-82
2022/07/29 01:58:00;;;;;;;;;9.00;8.25;;;;;20.39;40.58;101139.34;6278364;22;45584;-81
2022/07/29 02:00:27;;;;;;;;;8.00;7.00;;;;;20.55;40.66;101180.66;6251542;22;45233;-81
2022/07/29 02:02:54;;;;;;;;;8.75;7.75;;;;;20.25;40.82;101135.41;6251644;22;45259;-81
2022/07/29 02:05:22;;;;;;;;;10.00;8.25;;;;;20.46;40.71;101173.84;6279933;22;45402;-81
2022/07/29 02:07:50;;;;;;;;;10.75;8.50;;;;;20.36;40.52;101168.88;6251154;22;48040;-81
2022/07/29 02:10:21;;;;;;;;;11.25;10.25;;;;;20.24;40.45;101149.72;6277310;22;45153;-81
2022/07/29 02:12:48;;;;;;;;;10.00;9.25;;;;;20.22;40.84;101156.03;6279074;22;45286;-81
2022/07/29 02:15:16;;;;;;;;;8.25;8.25;;;;;20.40;40.43;101183.91;6277077;22;45308;-81
2022/07/29 02:17:46;;;;;;;;;10.25;7.50;;;;;20.52;40.81;101206.63;6279239;22;45209;-81
2022/07/29 02:20:12;;;;;;;;;10.75;7.00;;;;;20.32;40.65;101175.31;6251134;22;45438;-81
2022/07/29 02:22:39;;;;;;;;;8.00;8.00;;;;;20.43;40.95;101197.16;6276324;22;45412;-81
2022/07/29 02:25:07;;;;;;;;;9.00;7.00;;;;;20.37;40.76;101178.66;6278842;22;45462;-82
2022/07/29 02:27:34;;;;;;;;;8.00;8.00;;;;;20.32;41.23;101172.63;6250562;22;47056;-82
2022/07/29 02:30:02;;;;;;;;;7.00;7.00;;;;;20.44;41.12;101196.22;6279091;22;45481;-81
2022/07/29 02:32:30;;;;;;;;;9.75;9.00;;;;;20.22;41.22;101158.72;6251185;22;45277;-81
2022/07/29 02:34:58;;;;;;;;;8.50;8.00;;;;;20.50;41.53;101206.69;6278800;22;45442;-81
2022/07/29 02:37:24;;;;;;;;;2.50;2.50;;;;;20.49;41.22;101204.94;6278550;22;45292;-81
2022/07/29 02:39:53;;;;;;;;;9.75;8.75;;;;;20.26;41.47;101171.91;6250816;22;45233;-81
2022/07/29 02:42:21;;;;;;;;;9.50;9.50;;;;;20.22;41.30;101167.59;6278592;22;45233;-81
2022/07/29 02:44:47;;;;;;;;;7.50;7.25;;;;;20.39;41.87;101198.19;6250788;22;45419;-81
2022/07/29 02:47:25;;;;;;;;;6.25;5.50;;;;;20.19;42.23;101170.41;6250704;22;47021;-81
2022/07/29 02:49:59;;;;;;;;;8.25;6.25;;;;;20.35;42.24;101204.59;6277715;22;45297;-81
2022/07/29 02:52:47;;;;;;;;;7.00;5.50;;;;;20.47;42.45;101220.16;6278810;22;45315;-81
2022/07/29 02:55:33;;;;;;;;;6.50;6.50;;;;;20.45;41.99;101219.38;6276826;22;45193;-82
2022/07/29 02:58:10;;;;;;;;;7.00;6.50;;;;;20.27;41.92;101199.53;6276506;22;47009;-81
2022/07/29 03:00:38;;;;;;;;;10.00;8.25;;;;;20.23;41.75;101192.53;6250953;22;45269;-82
2022/07/29 03:03:14;;;;;;;;;6.50;6.00;;;;;20.18;41.56;101183.81;6278909;22;45233;-81
2022/07/29 03:05:40;;;;;;;;;8.00;6.25;;;;;20.22;41.79;101193.47;6278654;22;45213;-81
2022/07/29 03:08:09;;;;;;;;;8.50;7.50;;;;;20.21;41.32;101199.75;6276153;22;48474;-81
2022/07/29 03:10:36;;;;;;;;;8.25;8.25;;;;;20.16;41.11;101199.91;6251192;22;45408;-81
2022/07/29 03:13:02;;;;;;;;;6.50;6.50;;;;;20.17;41.42;101212.34;6251000;22;45204;-81
2022/07/29 03:15:28;;;;;;;;;8.25;6.25;;;;;20.09;41.54;101203.72;6278743;22;45110;-81
2022/07/29 03:17:55;;;;;;;;;9.00;9.00;;;;;20.11;41.38;101211.72;6251206;22;48258;-81
2022/07/29 03:20:21;;;;;;;;;8.50;8.25;;;;;19.88;41.55;101178.63;6250900;22;45289;-81
2022/07/29 03:22:47;;;;;;;;;7.75;7.50;;;;;19.91;41.59;101188.34;6278823;22;45330;-81
2022/07/29 03:25:17;;;;;;;;;10.00;10.00;;;;;20.10;41.35;101221.53;6278815;22;45404;-81
2022/07/29 03:27:43;;;;;;;;;9.25;7.50;;;;;20.12;41.90;101227.69;6278154;22;45243;-81
2022/07/29 03:30:10;;;;;;;;;11.50;9.50;;;;;20.12;41.61;101233.03;6278531;22;45287;-81
2022/07/29 03:32:36;;;;;;;;;9.25;9.00;;;;;19.81;41.65;101186.00;6276662;22;45398;-81
2022/07/29 03:35:02;;;;;;;;;8.50;8.50;;;;;19.74;41.94;101171.13;6250713;22;45406;-81
2022/07/29 03:37:28;;;;;;;;;9.50;9.50;;;;;19.76;41.92;101174.63;6250607;22;47898;-81
2022/07/29 03:39:56;;;;;;;;;7.50;7.50;;;;;19.69;42.11;101169.53;6276689;22;45738;-81
2022/07/29 03:42:25;;;;;;;;;8.00;7.00;;;;;19.91;41.97;101207.06;6278466;22;45121;-81
2022/07/29 03:44:52;;;;;;;;;9.50;8.50;;;;;19.89;42.24;101200.88;6249334;22;45525;-81
2022/07/29 03:47:22;;;;;;;;;6.50;6.00;;;;;19.77;42.43;101191.50;6275756;22;46895;-81
2022/07/29 03:49:51;;;;;;;;;8.00;7.25;;;;;19.89;42.59;101214.25;6250149;22;45264;-81
2022/07/29 03:52:17;;;;;;;;;9.75;8.00;;;;;19.93;42.50;101219.44;6250707;22;45384;-82
2022/07/29 03:54:43;;;;;;;;;7.50;7.25;;;;;19.81;42.19;101201.19;6278503;22;45351;-81
2022/07/29 03:57:11;;;;;;;;;8.75;8.75;;;;;19.91;42.24;101217.75;6276103;22;46970;-81
2022/07/29 03:59:37;;;;;;;;;8.25;8.00;;;;;19.95;42.72;101230.09;6276361;22;45441;-81
2022/07/29 04:02:17;;;;;;;;;7.00;7.00;;;;;19.54;42.77;101177.13;6251100;22;45142;-81
2022/07/29 04:04:42;;;;;;;;;10.25;8.50;;;;;19.60;42.81;101187.59;6277860;22;45381;-82
2022/07/29 04:07:12;;;;;;;;;10.00;9.50;;;;;19.78;43.00;101223.53;6249970;22;47667;-82
2022/07/29 04:09:37;;;;;;;;;11.00;10.00;;;;;19.78;43.46;101212.84;6278411;22;45231;-82
2022/07/29 04:12:03;;;;;;;;;8.75;8.00;;;;;19.60;43.34;101200.09;6275790;22;45184;-81
2022/07/29 04:14:28;;;;;;;;;9.75;7.75;;;;;19.75;43.24;101220.06;6275188;22;45391;-82
2022/07/29 04:16:53;;;;;;;;;10.00;8.50;;;;;19.81;43.60;101228.75;6276312;22;45696;-81
2022/07/29 04:19:19;;;;;;;;;7.50;7.25;;;;;19.56;43.73;101185.94;6278396;22;45139;-81
2022/07/29 04:21:45;;;;;;;;;12.00;8.25;;;;;19.91;44.04;101249.81;6278605;22;45216;-81
2022/07/29 04:24:10;;;;;;;;;11.25;9.50;;;;;19.57;43.58;101190.38;6278436;22;45355;-81
2022/07/29 04:26:35;;;;;;;;;7.75;7.75;;;;;19.58;44.27;101196.59;6276152;22;47490;-82
2022/07/29 04:29:01;;;;;;;;;7.75;7.75;;;;;19.71;44.08;101218.44;6275672;22;45394;-82
2022/07/29 04:31:27;;;;;;;;;10.00;8.75;;;;;19.85;43.82;101253.56;6278597;22;45350;-82
2022/07/29 04:33:52;;;;;;;;;9.75;8.25;;;;;19.66;44.08;101221.28;6276515;22;45330;-81
2022/07/29 04:36:20;;;;;;;;;9.00;8.25;;;;;19.87;43.91;101245.50;6249467;22;46663;-81
2022/07/29 04:38:45;;;;;;;;;10.50;8.50;;;;;19.70;44.34;101217.59;6278386;22;45232;-82
2022/07/29 04:41:10;;;;;;;;;9.25;9.00;;;;;19.76;44.08;101229.84;6278475;22;45605;-81
2022/07/29 04:43:36;;;;;;;;;9.50;8.50;;;;;19.64;44.07;101223.06;6278091;22;45261;-82
2022/07/29 04:46:03;;;;;;;;;8.75;8.75;;;;;19.56;44.31;101193.09;6276012;22;47386;-81
2022/07/29 04:48:28;;;;;;;;;7.50;7.25;;;;;19.78;44.34;101236.00;6277778;22;45253;-81
2022/07/29 04:50:53;;;;;;;;;7.25;7.00;;;;;19.67;44.10;101206.09;6276217;22;45137;-81
2022/07/29 04:53:19;;;;;;;;;7.00;6.75;;;;;19.58;44.56;101188.56;6250159;22;45202;-81
2022/07/29 04:55:45;;;;;;;;;7.75;7.75;;;;;20.03;44.66;101262.78;6278034;22;46093;-81
2022/07/29 04:58:11;;;;;;;;;7.00;7.00;;;;;19.97;44.30;101246.94;6287131;22;45122;-79
2022/07/29 05:00:36;;;;;;;;;9.00;8.50;;;;;19.83;44.46;101210.88;6263255;22;45323;-80
2022/07/29 05:03:03;;;;;;;;;7.25;7.25;;;;;19.96;43.68;101234.50;6289091;22;45598;-80
2022/07/29 05:05:28;;;;;;;;;9.25;8.00;;;;;20.17;43.74;101264.94;6289223;22;46332;-82
2022/07/29 05:07:58;;;;;;;;;7.00;7.00;;;;;20.10;44.03;101244.69;6258801;22;45266;-82
2022/07/29 05:10:23;;;;;;;;;8.25;7.75;;;;;20.26;43.33;101268.19;6278021;22;45208;-82
2022/07/29 05:12:49;;;;;;;;;6.75;6.75;;;;;20.31;43.68;101259.09;6277686;22;45284;-82
2022/07/29 05:15:14;;;;;;;;;9.50;7.00;;;;;20.21;43.33;101237.19;6250163;22;47440;-81
2022/07/29 05:17:40;;;;;;;;;8.50;7.00;;;;;20.37;43.53;101270.47;6251294;22;45241;-82
2022/07/29 05:20:06;;;;;;;;;10.00;9.00;;;;;20.38;43.01;101257.97;6277605;22;45557;-81
2022/07/29 05:22:31;;;;;;;;;7.25;7.00;;;;;20.40;42.96;101254.31;6251217;22;45401;-82
2022/07/29 05:24:57;;;;;;;;;5.75;5.75;;;;;20.23;42.84;101225.50;6278885;22;45315;-82
2022/07/29 05:27:22;;;;;;;;;9.00;8.00;;;;;20.52;42.99;101265.47;6250630;22;45386;-81
2022/07/29 05:29:48;;;;;;;;;7.50;7.50;;;;;20.48;43.02;101256.72;6279407;22;45608;-82
2022/07/29 05:32:13;;;;;;;;;11.00;9.75;;;;;20.59;42.75;101275.94;6251735;22;45627;-82
2022/07/29 05:34:39;;;;;;;;;10.00;8.25;;;;;20.62;42.79;101272.28;6251368;22;47974;-81
2022/07/29 05:37:05;;;;;;;;;10.50;8.25;;;;;20.59;42.68;101253.66;6277479;22;45224;-81
2022/07/29 05:39:30;;;;;;;;;8.75;8.75;;;;;20.59;42.55;101248.31;6251595;22;45232;-81
2022/07/29 05:41:55;;;;;;;;;9.00;9.00;;;;;20.67;42.43;101264.97;6279397;22;45597;-81
2022/07/29 05:44:21;;;;;;;;;7.50;7.50;;;;;20.61;42.27;101255.38;6251248;22;48049;-81
2022/07/29 05:46:46;;;;;;;;;9.75;9.75;;;;;20.74;42.68;101274.47;6251496;22;45220;-81
2022/07/29 05:49:13;;;;;;;;;7.25;7.25;;;;;20.63;42.43;101255.28;6278824;22;45370;-81
2022/07/29 05:51:38;;;;;;;;;7.50;7.25;;;;;20.77;42.73;101271.72;6277128;22;45402;-81
2022/07/29 05:54:04;;;;;;;;;13.25;11.00;;;;;20.82;42.17;101285.81;6251230;22;47312;-81
2022/07/29 05:56:29;;;;;;;;;8.75;8.00;;;;;20.70;42.40;101267.50;6251494;22;45255;-81
2022/07/29 05:58:54;;;;;;;;;9.00;9.00;;;;;20.87;42.15;101294.50;6279177;22;45402;-81
2022/07/29 06:01:20;;;;;;;;;9.75;7.50;;;;;20.79;42.42;101279.66;6277139;22;45438;-81
2022/07/29 06:03:46;;;;;;;;;8.25;8.25;;;;;20.77;42.42;101263.69;6251293;22;48007;-81
2022/07/29 06:06:12;;;;;;;;;6.75;6.50;;;;;20.96;42.39;101282.59;6277318;22;45542;-81
2022/07/29 06:08:38;;;;;;;;;9.50;8.50;;;;;20.98;42.28;101296.75;6251502;22;45292;-81
2022/07/29 06:11:04;;;;;;;;;8.50;7.75;;;;;21.02;42.60;101293.06;6279132;22;45499;-81
2022/07/29 06:13:30;;;;;;;;;8.50;7.00;;;;;20.86;42.35;101266.00;6250895;22;48358;-81
2022/07/29 06:15:56;;;;;;;;;7.75;7.00;;;;;20.89;42.40;101271.22;6276779;22;45218;-81
2022/07/29 06:18:23;;;;;;;;;1.75;1.75;;;;;20.88;42.43;101269.50;6252248;22;45418;-81
2022/07/29 06:20:49;;;;;;;;;9.50;9.50;;;;;20.97;42.66;101283.47;6251252;22;46231;-81
2022/07/29 06:23:15;;;;;;;;;8.50;8.00;;;;;20.93;42.41;101280.03;6276668;22;47423;-81
2022/07/29 06:25:40;;;;;;;;;9.50;8.00;;;;;21.06;42.63;101299.16;6278799;22;45302;-81
2022/07/29 06:28:06;;;;;;;;;11.50;8.75;;;;;21.11;42.41;101302.53;6251691;22;45352;-80
2022/07/29 06:30:32;;;;;;;;;35.00;32.00;;;;;20.96;42.28;101276.38;6253294;22;45649;-80
2022/07/29 06:32:57;;;;;;;;;8.50;8.25;;;;;21.01;42.74;101285.97;6282434;22;45304;-81
2022/07/29 06:35:22;;;;;;;;;12.50;8.50;;;;;21.04;42.35;101293.00;6277544;22;45390;-80
2022/07/29 06:37:48;;;;;;;;;9.00;7.00;;;;;21.03;42.40;101289.44;6279964;22;45304;-81
2022/07/29 06:43:05;;;;;;;;;7.75;7.75;;;;;21.04;41.88;101301.91;6252182;22;45476;-82
2022/07/29 06:45:34;;;;;;;;;8.25;7.50;;;;;21.00;41.61;101300.25;6278574;22;45342;-81
2022/07/29 06:47:59;;;;;;;;;9.25;9.25;;;;;20.93;41.77;101290.75;6278788;22;45365;-81
2022/07/29 06:50:24;;;;;;;;;9.00;8.50;;;;;20.99;41.71;101314.59;6275576;22;45201;-81
2022/07/29 06:52:50;;;;;;;;;9.50;7.50;;;;;20.89;41.63;101294.44;6250842;22;47223;-80
2022/07/29 06:55:15;;;;;;;;;7.25;7.25;;;;;20.80;41.65;101282.31;6276787;22;45243;-80
2022/07/29 06:57:40;;;;;;;;;7.00;6.00;;;;;20.90;41.62;101305.13;6251173;22;45146;-80
2022/07/29 07:00:07;;;;;;;;;6.25;6.25;;;;;20.90;41.59;101307.78;6278427;22;45510;-80
2022/07/29 07:02:32;;;;;;;;;6.00;6.00;;;;;20.92;41.77;101313.94;6278672;22;45235;-81
2022/07/29 07:04:58;;;;;;;;;6.50;6.25;;;;;20.92;42.12;101324.66;6250712;22;45113;-81
2022/07/29 07:07:24;;;;;;;;;11.75;9.00;;;;;20.85;42.38;101300.84;6276691;22;45292;-81
2022/07/29 07:09:49;;;;;;;;;6.25;6.00;;;;;20.84;42.56;101294.63;6276574;22;45410;-81
2022/07/29 07:12:15;;;;;;;;;8.25;8.25;;;;;21.03;42.43;101320.69;6276334;22;46953;-80
2022/07/29 07:14:40;;;;;;;;;7.00;7.00;;;;;20.98;42.16;101301.25;6250873;22;45264;-81
2022/07/29 07:17:06;;;;;;;;;6.00;6.00;;;;;21.17;42.16;101326.41;6250817;22;45414;-80
2022/07/29 07:19:32;;;;;;;;;6.50;6.50;;;;;21.01;42.22;101296.69;6250717;22;45398;-80
2022/07/29 07:21:57;;;;;;;;;8.25;7.00;;;;;21.18;42.08;101322.78;6278039;22;46214;-80
2022/07/29 07:24:22;;;;;;;;;7.25;6.50;;;;;21.20;42.29;101312.00;6278518;22;45353;-81
2022/07/29 07:26:48;;;;;;;;;7.00;6.00;;;;;21.35;42.42;101314.97;6250340;22;45360;-81
2022/07/29 07:29:15;;;;;;;;;8.25;8.25;;;;;21.46;42.00;101314.56;6276558;22;45474;-80
2022/07/29 07:31:41;;;;;;;;;6.00;6.00;;;;;21.49;41.95;101305.53;6278393;22;45253;-80
2022/07/29 07:34:06;;;;;;;;;6.75;6.75;;;;;21.73;41.85;101328.69;6278222;22;45105;-81
2022/07/29 07:36:31;;;;;;;;;6.75;6.25;;;;;21.79;41.59;101322.19;6250315;22;45279;-81
2022/07/29 07:39:07;;;;;;;;;7.25;7.25;;;;;21.96;41.61;101325.03;6275261;22;45420;-81
2022/07/29 07:48:37;;;;;;;;;;;;;;;;;;;;;
2022/07/29 07:51:03;;;;;;;;;6.50;6.25;;;;;22.45;40.56;101322.06;6276508;22;73348;-81
2022/07/29 07:53:29;;;;;;;;;11.25;8.25;;;;;22.56;40.40;101321.59;6275204;22;47687;-81
2022/07/29 07:55:55;;;;;;;;;8.00;7.50;;;;;22.74;40.16;101336.00;6277929;22;45184;-81
2022/07/29 07:58:20;;;;;;;;;6.25;5.50;;;;;22.81;39.97;101330.31;6249670;22;45688;-81
2022/07/29 08:00:46;;;;;;;;;5.50;5.25;;;;;22.95;39.85;101344.91;6277774;22;45147;-81
2022/07/29 08:03:13;;;;;;;;;8.75;8.75;;;;;23.02;39.53;101328.47;6249137;22;46826;-82
2022/07/29 08:05:41;;;;;;;;;6.75;6.75;;;;;23.20;39.18;101334.81;6249015;22;45126;-81
2022/07/29 08:08:07;;;;;;;;;10.50;9.00;;;;;23.30;39.03;101329.88;6277400;22;45353;-82
2022/07/29 08:13:33;;;;;;;;;7.25;6.25;;;;;23.62;38.72;101344.44;6182359;23;46134;-82
2022/07/29 08:16:01;;;;;;;;;6.75;6.50;;;;;23.66;38.31;101331.75;6255864;22;45129;-81
2022/07/29 08:18:31;;;;;;;;;5.25;5.00;;;;;23.76;38.31;101342.00;6278225;22;45436;-82
2022/07/29 08:20:57;;;;;;;;;9.00;7.00;;;;;23.81;37.87;101332.81;6275993;22;45417;-82
2022/07/29 08:23:23;;;;;;;;;6.75;6.75;;;;;23.85;37.74;101337.97;6249802;22;47203;-81
2022/07/29 08:25:49;;;;;;;;;6.00;6.00;;;;;23.89;37.50;101331.47;6277967;22;45153;-81
2022/07/29 08:28:15;;;;;;;;;8.00;6.50;;;;;23.91;37.54;101323.34;6250124;22;45465;-82
2022/07/29 08:30:40;;;;;;;;;4.75;4.75;;;;;24.02;37.33;101323.66;6249284;22;45688;-81
2022/07/29 08:33:06;;;;;;;;;6.25;5.50;;;;;24.04;36.91;101324.47;6278012;22;45366;-82
2022/07/29 08:35:31;;;;;;;;;4.75;4.75;;;;;24.10;37.21;101321.47;6277897;22;45358;-81
2022/07/29 08:37:59;;;;;;;;;6.00;5.25;;;;;24.15;36.88;101330.16;6249865;22;45294;-82
2022/07/29 08:40:25;;;;;;;;;4.75;4.75;;;;;24.17;36.70;101320.22;6277255;22;45418;-81
2022/07/29 08:42:51;;;;;;;;;3.75;3.75;;;;;24.34;35.99;101335.47;6249371;22;48290;-81
2022/07/29 08:45:16;;;;;;;;;6.00;6.00;;;;;24.40;35.23;101326.19;6248763;22;45180;-81
2022/07/29 08:47:44;;;;;;;;;5.50;5.00;;;;;24.43;35.58;101316.16;6274567;22;45218;-81
2022/07/29 08:50:11;;;;;;;;;6.00;4.25;;;;;24.57;34.93;101318.16;6277296;22;45436;-81
2022/07/29 08:52:38;;;;;;;;;5.00;5.00;;;;;24.66;34.72;101316.78;6275772;22;46983;-81
2022/07/29 08:55:07;;;;;;;;;4.25;4.25;;;;;24.80;34.69;101324.97;6276411;22;45319;-81
2022/07/29 08:57:33;;;;;;;;;4.00;4.00;;;;;24.97;34.15;101336.69;6278385;22;45197;-81
2022/07/29 09:00:00;;;;;;;;;4.00;4.00;;;;;25.00;33.80;101326.59;6250880;22;45509;-81
2022/07/29 09:02:29;;;;;;;;;6.00;3.50;;;;;25.18;33.79;101327.47;6278612;22;45384;-82
2022/07/29 09:04:58;;;;;;;;;4.00;4.00;;;;;25.26;33.32;101327.91;6276413;22;45331;-81
2022/07/29 09:07:23;;;;;;;;;3.00;3.00;;;;;25.39;33.18;101322.66;6278391;22;45165;-81
2022/07/29 09:09:49;;;;;;;;;6.00;5.00;;;;;25.52;33.06;101328.22;6279087;22;45433;-81
2022/07/29 09:12:15;;;;;;;;;3.25;3.25;;;;;25.61;32.54;101325.03;6250375;22;47021;-81
2022/07/29 09:14:41;;;;;;;;;3.25;3.25;;;;;25.68;32.82;101331.78;6250989;22;45490;-81
2022/07/29 09:17:10;;;;;;;;;4.25;3.75;;;;;25.64;32.28;101308.66;6279139;22;45201;-81
2022/07/29 09:19:37;;;;;;;;;5.00;3.75;;;;;25.71;32.42;101307.34;6250970;22;45225;-81
2022/07/29 09:22:05;;;;;;;;;3.00;3.00;;;;;25.75;32.51;101311.59;6278711;22;46234;-81
2022/07/29 09:24:44;;;;;;;;;4.00;3.00;;;;;25.96;31.83;101322.13;6250468;22;45572;-82
2022/07/29 09:27:28;;;;;;;;;5.67;3.67;;;;;26.03;32.00;101325.31;6250739;22;45327;-81
2022/07/29 09:30:12;;;;;;;;;3.00;3.00;;;;;26.03;31.81;101318.09;6250484;22;45409;-80
2022/07/29 09:33:02;;;;;;;;;4.00;4.00;;;;;26.10;31.58;101322.16;6276107;22;47936;-81
2022/07/29 09:35:29;;;;;;;;;2.67;2.33;;;;;26.16;31.77;101313.69;6250170;22;45196;-81
2022/07/29 09:37:55;;;;;;;;;3.67;2.00;;;;;26.25;31.17;101320.41;6250333;22;45155;-81
2022/07/29 09:40:28;;;;;;;;;3.00;2.00;;;;;26.30;31.18;101306.59;6279135;22;45428;-81
2022/07/29 09:42:57;;;;;;;;;3.50;3.25;;;;;26.34;31.23;101316.25;6250875;22;47254;-82
2022/07/29 09:45:31;;;;;;;;;3.33;3.33;;;;;26.40;30.98;101316.75;6276253;22;45689;-81
2022/07/29 09:48:02;;;;;;;;;3.25;3.00;;;;;26.52;31.00;101317.00;6250692;22;45341;-82
2022/07/29 09:50:35;;;;;;;;;3.75;3.75;;;;;26.56;30.82;101307.75;6250391;22;45187;-81
2022/07/29 09:53:01;;;;;;;;;4.00;4.00;;;;;26.72;30.67;101322.03;6276103;22;47926;-82
2022/07/29 09:55:27;;;;;;;;;5.50;5.50;;;;;26.69;30.85;101318.66;6250436;22;45162;-82
2022/07/29 09:57:53;;;;;;;;;5.00;4.00;;;;;26.77;30.48;101311.81;6278361;22;45068;-82
2022/07/29 10:00:22;;;;;;;;;2.75;2.75;;;;;26.86;30.46;101321.16;6278851;22;45271;-82
2022/07/29 10:02:48;;;;;;;;;3.50;3.25;;;;;26.91;30.23;101321.75;6277328;22;46102;-82
2022/07/29 10:05:22;;;;;;;;;3.67;2.67;;;;;27.01;30.46;101324.75;6276228;22;45281;-82
2022/07/29 10:07:56;;;;;;;;;3.25;3.25;;;;;27.06;30.36;101317.22;6250094;22;45376;-82
2022/07/29 10:10:24;;;;;;;;;2.25;2.25;;;;;27.09;30.30;101316.16;6250331;22;45543;-82
2022/07/29 10:13:01;;;;;;;;;4.00;4.00;;;;;27.18;30.02;101313.72;6249738;22;48528;-82
2022/07/29 10:15:32;;;;;;;;;3.00;3.00;;;;;27.24;29.93;101317.91;6248664;22;45181;-82
2022/07/29 10:17:59;;;;;;;;;5.67;3.67;;;;;27.31;29.91;101324.63;6249496;22;45355;-82
2022/07/29 10:20:30;;;;;;;;;3.25;3.25;;;;;27.29;29.82;101318.44;6278026;22;45465;-82
2022/07/29 10:22:56;;;;;;;;;2.50;2.50;;;;;27.33;29.57;101319.13;6277147;22;45658;-82
2022/07/29 10:25:23;;;;;;;;;4.00;4.00;;;;;27.40;29.23;101336.69;6277768;22;45373;-81
2022/07/29 10:27:54;;;;;;;;;4.00;3.00;;;;;27.31;29.56;101316.50;6250603;22;45322;-82
2022/07/29 10:30:25;;;;;;;;;3.25;2.75;;;;;27.33;29.20;101308.31;6278257;22;45511;-82
2022/07/29 10:33:37;;;;;;;;;5.00;5.00;;;;;27.46;29.58;101325.47;6249886;22;46902;-82
2022/07/29 10:36:24;;;;;;;;;5.00;5.00;;;;;27.48;29.38;101320.84;6275345;22;45551;-82
2022/07/29 10:39:04;;;;;;;;;3.00;3.00;;;;;27.58;29.59;101323.78;6250793;22;45384;-82
2022/07/29 10:41:39;;;;;;;;;3.00;3.00;;;;;27.63;29.57;101319.81;6250270;22;45565;-82
2022/07/29 10:44:08;;;;;;;;;3.33;3.33;;;;;27.63;29.12;101313.53;6249999;22;48053;-82
2022/07/29 10:46:39;;;;;;;;;5.50;5.50;;;;;27.82;29.40;101315.91;6250428;22;45400;-82
2022/07/29 10:49:24;;;;;;;;;4.00;3.00;;;;;27.99;28.96;101328.31;6278374;22;45209;-82
2022/07/29 10:51:57;;;;;;;;;4.00;4.00;;;;;28.00;28.76;101324.63;6250389;22;45384;-82
2022/07/29 10:54:35;;;;;;;;;3.67;2.33;;;;;28.05;29.29;101330.63;6278383;22;46211;-82
2022/07/29 10:57:21;;;;;;;;;5.00;3.75;;;;;28.10;29.05;101328.47;6250153;22;45601;-82
2022/07/29 10:59:49;;;;;;;;;5.00;5.00;;;;;28.09;28.48;101314.06;6250879;22;45277;-82
2022/07/29 11:02:35;;;;;;;;;4.00;4.00;;;;;28.27;28.83;101335.41;6278295;22;45295;-82
2022/07/29 11:05:05;;;;;;;;;4.00;4.00;;;;;28.40;28.64;101328.19;6276133;22;46829;-82
2022/07/29 11:07:36;;;;;;;;;4.00;4.00;;;;;28.52;29.03;101327.38;6250027;22;45389;-82
2022/07/29 11:10:16;;;;;;;;;3.00;3.00;;;;;28.66;27.98;101331.81;6250403;22;45193;-82
2022/07/29 11:12:42;;;;;;;;;2.75;2.75;;;;;28.68;28.23;101321.75;6249786;22;45439;-82
2022/07/29 11:15:22;;;;;;;;;;;;;;;;;;;;;
2022/07/29 11:18:14;;;;;;;;;3.75;3.75;;;;;28.94;28.38;101322.56;6276611;22;72468;-82
2022/07/29 11:20:45;;;;;;;;;4.00;3.33;;;;;29.09;28.23;101315.22;6249435;22;45352;-82
2022/07/29 11:23:39;;;;;;;;;;;;;;;;;;;;;
2022/07/29 11:26:13;;;;;;;;;4.00;4.00;;;;;29.48;27.50;101317.81;6276400;22;73967;-82
2022/07/29 11:28:53;;;;;;;;;3.50;3.50;;;;;29.66;27.71;101324.63;6274838;22;45431;-82
2022/07/29 11:31:42;;;;;;;;;3.75;3.75;;;;;29.81;26.75;101314.47;6278094;22;45396;-82
2022/07/29 11:34:29;;;;;;;;;4.00;3.00;;;;;29.96;26.48;101318.72;6249701;22;45129;-82
2022/07/29 11:37:08;;;;;;;;;5.00;5.00;;;;;30.04;26.77;101312.69;6249630;22;47627;-82
2022/07/29 11:39:45;;;;;;;;;;;;;;;;;;;;;
2022/07/29 11:42:20;;;;;;;;;6.33;4.67;;;;;30.43;26.33;101307.91;6276649;22;67486;-82
2022/07/29 11:45:09;;;;;;;;;2.00;2.00;;;;;30.66;26.10;101315.13;6276160;22;45583;-82
2022/07/29 11:47:37;;;;;;;;;5.50;4.50;;;;;30.74;26.10;101299.06;6250183;22;47110;-82
2022/07/29 11:50:08;;;;;;;;;4.25;3.25;;;;;30.98;25.63;101318.00;6249886;22;45616;-82
2022/07/29 11:52:42;;;;;;;;;4.00;4.00;;;;;31.09;25.01;101306.25;6276042;22;45284;-82